Time;durP1;ratioP1;P1;durP2;ratioP2;P2;SDS_P1;SDS_P2;PMS_P1;PMS_P2;Temp;Humidity;BMP_temperature;BMP_pressure;BME280_temperature;BME280_humidity;BME280_pressure;Samples;Min_cycle;Max_cycle;Signal;HPM_P1;HPM_P2
2022/02/02 00:00:51;;;;;;;0.80;0.30;;;7.30;99.90;;;;;;5032554;28;20051;-67
2022/02/02 00:03:19;;;;;;;0.00;0.00;;;7.40;99.90;;;;;;5031078;28;20037;-67
2022/02/02 00:08:18;;;;;;;0.00;0.00;;;7.50;99.90;;;;;;5031439;28;20117;-66
2022/02/02 00:21:27;;;;;;;0.00;0.00;;;7.60;99.90;;;;;;5032063;28;20033;-67
2022/02/02 00:23:59;;;;;;;0.00;0.00;;;7.60;99.90;;;;;;5032071;28;20087;-68
2022/02/02 00:26:30;;;;;;;0.10;0.10;;;7.60;99.90;;;;;;5015402;28;20283;-68
2022/02/02 00:29:03;;;;;;;0.00;0.00;;;7.60;99.90;;;;;;5030593;28;20041;-68
2022/02/02 00:31:36;;;;;;;0.00;0.00;;;7.70;99.90;;;;;;5030972;28;20045;-68
2022/02/02 00:34:07;;;;;;;0.00;0.00;;;7.70;99.90;;;;;;5030400;28;20056;-68
2022/02/02 00:36:56;;;;;;;0.00;0.00;;;7.70;99.90;;;;;;5030930;28;20124;-68
2022/02/02 00:39:19;;;;;;;0.00;0.00;;;7.70;99.90;;;;;;5031293;28;20132;-68
2022/02/02 00:41:44;;;;;;;2.05;1.75;;;7.70;99.90;;;;;;5031529;28;20116;-68
2022/02/02 00:44:10;;;;;;;2.25;1.48;;;7.70;99.90;;;;;;5030503;28;20060;-68
2022/02/02 00:46:36;;;;;;;0.00;0.00;;;7.70;99.90;;;;;;5031949;28;20394;-68
2022/02/02 00:49:05;;;;;;;0.00;0.00;;;7.70;99.90;;;;;;5031761;28;20030;-67
2022/02/02 00:51:46;;;;;;;2.45;0.55;;;7.80;99.90;;;;;;5031848;28;20061;-67
2022/02/02 00:54:22;;;;;;;0.75;0.75;;;7.80;99.90;;;;;;5031769;28;20025;-67
2022/02/02 00:56:49;;;;;;;0.20;0.20;;;7.80;99.90;;;;;;5031439;28;20537;-67
2022/02/02 00:59:17;;;;;;;1.75;1.65;;;7.80;99.90;;;;;;5013840;28;20030;-66
2022/02/02 01:01:43;;;;;;;0.10;0.10;;;7.80;99.90;;;;;;5031252;28;20501;-67
2022/02/02 01:04:09;;;;;;;2.05;1.55;;;7.80;99.90;;;;;;5031720;28;20042;-67
2022/02/02 01:06:41;;;;;;;0.63;0.63;;;7.80;99.90;;;;;;5031653;28;20030;-67
2022/02/02 01:17:17;;;;;;;0.00;0.00;;;7.70;99.90;;;;;;5030124;28;20479;-66
2022/02/02 01:30:09;;;;;;;0.55;0.55;;;8.10;99.90;;;;;;5035025;28;20042;-66
2022/02/02 01:32:36;;;;;;;0.00;0.00;;;8.10;99.90;;;;;;5035170;28;20478;-66
2022/02/02 01:35:04;;;;;;;0.20;0.20;;;8.10;99.90;;;;;;5035217;28;20379;-67
2022/02/02 01:37:31;;;;;;;0.47;0.47;;;8.10;99.90;;;;;;5034008;28;20029;-67
2022/02/02 01:40:02;;;;;;;0.20;0.20;;;8.20;99.90;;;;;;5033773;28;20029;-67
2022/02/02 01:42:36;;;;;;;0.70;0.70;;;8.20;99.90;;;;;;5018439;28;20029;-66
2022/02/02 01:45:11;;;;;;;0.52;0.52;;;8.20;99.90;;;;;;5033761;28;20115;-66
2022/02/02 01:47:47;;;;;;;3.70;1.00;;;8.20;99.90;;;;;;5033704;28;20037;-66
2022/02/02 01:50:20;;;;;;;0.00;0.00;;;8.10;99.90;;;;;;5033978;28;20029;-66
2022/02/02 01:55:29;;;;;;;0.00;0.00;;;7.90;99.90;;;;;;5034776;28;20034;-66
2022/02/02 02:00:26;;;;;;;0.00;0.00;;;7.90;99.90;;;;;;5034794;28;20037;-67
2022/02/02 02:02:52;;;;;;;1.20;1.17;;;7.90;99.90;;;;;;5034430;28;20033;-67
2022/02/02 02:05:18;;;;;;;0.00;0.00;;;7.90;99.90;;;;;;5034477;28;20033;-68
2022/02/02 02:07:44;;;;;;;0.00;0.00;;;7.80;99.90;;;;;;5034552;28;20104;-68
2022/02/02 02:10:10;;;;;;;0.10;0.10;;;7.80;99.90;;;;;;5034448;28;20044;-68
2022/02/02 02:12:58;;;;;;;5.05;2.47;;;7.80;99.90;;;;;;5034641;28;20026;-68
2022/02/02 02:15:30;;;;;;;0.55;0.55;;;7.80;99.90;;;;;;5016534;28;20029;-67
2022/02/02 02:17:57;;;;;;;0.00;0.00;;;7.90;99.90;;;;;;5049948;28;20030;-67
2022/02/02 02:20:23;;;;;;;0.00;0.00;;;7.80;99.90;;;;;;5034311;28;20034;-67
2022/02/02 02:22:49;;;;;;;0.00;0.00;;;7.90;99.90;;;;;;5032804;28;20037;-67
2022/02/02 02:25:25;;;;;;;25.08;0.98;;;7.80;99.90;;;;;;5032896;28;20036;-66
2022/02/02 02:27:51;;;;;;;0.00;0.00;;;7.90;99.90;;;;;;5034022;28;20029;-67
2022/02/02 02:30:39;;;;;;;0.00;0.00;;;8.00;99.90;;;;;;5033705;28;20039;-66
2022/02/02 02:39:24;;;;;;;0.00;0.00;;;7.90;99.90;;;;;;5034060;28;20026;-67
2022/02/02 02:57:39;;;;;;;0.00;0.00;;;8.00;99.90;;;;;;5032274;28;20026;-68
2022/02/02 03:00:24;;;;;;;2.05;0.43;;;8.20;99.90;;;;;;5033460;28;20474;-67
2022/02/02 03:13:42;;;;;;;0.00;0.00;;;8.30;99.90;;;;;;5032375;28;20198;-67
2022/02/02 04:07:53;;;;;;;0.13;0.13;;;8.30;99.90;;;;;;5031289;28;20037;-66
2022/02/02 04:10:19;;;;;;;0.00;0.00;;;8.30;99.90;;;;;;5032314;28;20025;-66
2022/02/02 04:12:54;;;;;;;0.45;0.45;;;8.30;99.90;;;;;;5032305;28;20057;-66
2022/02/02 05:04:40;;;;;;;0.00;0.00;;;8.80;99.90;;;;;;5030195;28;20402;-66
2022/02/02 05:07:16;;;;;;;0.75;0.75;;;8.70;99.90;;;;;;5031172;28;20040;-66
2022/02/02 05:20:22;;;;;;;0.00;0.00;;;8.60;99.90;;;;;;5034160;28;20040;-64
2022/02/02 05:23:59;;;;;;;0.08;0.08;;;8.50;99.90;;;;;;5035733;28;20037;-64
2022/02/02 05:52:51;;;;;;;0.47;0.47;;;8.30;99.90;;;;;;5064321;28;20489;-66
2022/02/02 05:55:16;;;;;;;1.40;1.33;;;8.30;99.90;;;;;;5043310;28;20037;-67
2022/02/02 05:57:46;;;;;;;0.15;0.15;;;8.30;99.90;;;;;;5037559;28;20026;-67
2022/02/02 06:00:13;;;;;;;0.10;0.10;;;8.30;99.90;;;;;;5022632;28;20034;-67
2022/02/02 06:02:45;;;;;;;0.00;0.00;;;8.30;99.90;;;;;;5046241;28;20121;-66
2022/02/02 06:05:10;;;;;;;;;;;8.40;99.90;;;;;;5032100;28;20065;-67
2022/02/02 06:07:40;;;;;;;0.10;0.10;;;8.50;99.90;;;;;;5034712;28;20356;-66
2022/02/02 06:10:13;;;;;;;0.00;0.00;;;8.40;99.90;;;;;;5034637;28;20406;-67
2022/02/02 06:12:44;;;;;;;3.05;2.15;;;8.50;99.90;;;;;;5034647;28;20040;-67
2022/02/02 06:15:14;;;;;;;0.08;0.08;;;8.50;99.90;;;;;;5034549;28;20033;-67
2022/02/02 06:17:45;;;;;;;2.30;1.60;;;8.60;99.90;;;;;;5050032;28;20060;-67
2022/02/02 06:20:12;;;;;;;0.00;0.00;;;8.60;99.90;;;;;;5038421;28;20091;-67
2022/02/02 06:22:51;;;;;;;0.20;0.20;;;8.50;99.90;;;;;;5047046;28;20034;-68
2022/02/02 06:25:22;;;;;;;6.82;0.82;;;8.60;99.90;;;;;;5020934;28;20038;-68
2022/02/02 06:28:06;;;;;;;2.30;2.00;;;8.60;99.90;;;;;;5013058;28;20030;-68
2022/02/02 06:30:34;;;;;;;1.55;1.45;;;8.70;99.90;;;;;;5013834;28;20445;-69
2022/02/02 06:33:11;;;;;;;0.47;0.47;;;8.70;99.90;;;;;;5030440;28;20103;-68
2022/02/02 06:35:37;;;;;;;0.63;0.63;;;8.70;99.90;;;;;;5033844;28;20532;-68
2022/02/02 06:38:06;;;;;;;4.60;2.33;;;8.60;99.90;;;;;;5016260;28;20495;-69
2022/02/02 06:40:33;;;;;;;1.60;1.27;;;8.60;99.90;;;;;;5034152;28;20095;-69
2022/02/02 06:43:00;;;;;;;0.00;0.00;;;8.60;99.90;;;;;;5033255;28;20068;-68
2022/02/02 06:45:26;;;;;;;0.00;0.00;;;8.60;99.90;;;;;;5034050;28;20034;-68
2022/02/02 06:47:52;;;;;;;1.60;1.08;;;8.70;99.90;;;;;;5034185;28;20659;-67
2022/02/02 06:53:23;;;;;;;2.13;1.48;;;8.70;99.90;;;;;;5033860;28;20113;-68
2022/02/02 07:11:18;;;;;;;0.00;0.00;;;8.70;99.90;;;;;;5013642;28;20036;-67
2022/02/02 07:16:46;;;;;;;0.03;0.03;;;8.80;99.90;;;;;;5013352;28;20045;-69
2022/02/02 07:25:13;;;;;;;0.80;0.80;;;8.70;99.90;;;;;;5027982;28;20042;-69
2022/02/02 07:32:46;;;;;;;0.00;0.00;;;8.70;99.90;;;;;;5047787;28;20053;-68
2022/02/02 07:35:22;;;;;;;0.32;0.32;;;8.60;99.90;;;;;;5031364;28;20472;-69
2022/02/02 07:38:13;;;;;;;0.00;0.00;;;8.60;99.90;;;;;;5032910;28;20103;-68
2022/02/02 07:40:44;;;;;;;0.77;0.47;;;8.70;99.90;;;;;;5048035;28;20194;-68
2022/02/02 07:43:23;;;;;;;1.13;1.02;;;8.60;99.90;;;;;;5032732;28;20037;-69
2022/02/02 07:45:58;;;;;;;0.00;0.00;;;8.70;99.90;;;;;;5041640;28;20033;-76
2022/02/02 07:48:24;;;;;;;0.20;0.20;;;8.60;99.90;;;;;;5013082;28;20041;-69
2022/02/02 07:50:52;;;;;;;0.00;0.00;;;8.70;99.90;;;;;;5011450;28;20545;-69
2022/02/02 07:53:23;;;;;;;1.55;1.02;;;8.70;99.90;;;;;;5012897;28;20042;-69
2022/02/02 07:55:49;;;;;;;;;;;8.80;99.90;;;;;;5011946;28;20060;-68
2022/02/02 07:58:21;;;;;;;0.10;0.10;;;8.80;99.90;;;;;;5028092;28;19972;-68
2022/02/02 08:00:47;;;;;;;0.20;0.20;;;8.80;99.90;;;;;;5012871;28;20037;-68
2022/02/02 08:03:14;;;;;;;1.65;1.25;;;8.80;99.90;;;;;;5027795;28;20026;-68
2022/02/02 08:05:45;;;;;;;0.43;0.43;;;8.80;99.90;;;;;;5012747;28;20049;-68
2022/02/02 08:08:26;;;;;;;;;;;8.80;99.90;;;;;;5027867;28;20037;-69
2022/02/02 08:10:54;;;;;;;0.90;0.90;;;8.90;99.90;;;;;;5011317;28;19963;-68
2022/02/02 08:13:27;;;;;;;0.00;0.00;;;8.80;99.90;;;;;;5027562;28;20037;-68
2022/02/02 08:15:59;;;;;;;0.00;0.00;;;8.80;99.90;;;;;;5012415;28;20115;-69
2022/02/02 08:18:25;;;;;;;0.45;0.43;;;8.80;99.90;;;;;;5011132;28;20032;-69
2022/02/02 08:20:51;;;;;;;0.00;0.00;;;8.80;99.90;;;;;;5012491;28;20108;-69
2022/02/02 08:23:18;;;;;;;0.22;0.22;;;8.80;99.90;;;;;;5012346;28;20056;-69
2022/02/02 08:25:44;;;;;;;0.00;0.00;;;8.80;99.90;;;;;;5012387;28;20061;-69
2022/02/02 08:28:10;;;;;;;0.03;0.03;;;8.80;99.90;;;;;;5011831;28;20030;-69
2022/02/02 08:30:36;;;;;;;0.13;0.13;;;8.80;99.90;;;;;;5027542;28;20030;-69
2022/02/02 08:33:06;;;;;;;0.20;0.20;;;8.80;99.90;;;;;;5011765;28;20050;-69
2022/02/02 08:35:40;;;;;;;0.82;0.80;;;8.90;99.90;;;;;;5012121;28;20034;-69
2022/02/02 08:38:30;;;;;;;0.38;0.38;;;9.00;99.90;;;;;;5027452;28;20368;-67
2022/02/02 08:41:05;;;;;;;0.20;0.20;;;9.00;99.90;;;;;;5010679;28;20474;-68
2022/02/02 08:43:45;;;;;;;2.20;1.75;;;9.00;99.90;;;;;;5010708;28;20458;-67
2022/02/02 08:46:20;;;;;;;0.10;0.10;;;9.00;99.90;;;;;;5025424;28;20423;-68
2022/02/02 08:48:48;;;;;;;0.15;0.15;;;9.00;99.90;;;;;;5027299;28;20034;-68
2022/02/02 08:51:17;;;;;;;3.33;0.98;;;9.00;99.90;;;;;;5011022;28;20048;-69
2022/02/02 08:56:32;;;;;;;0.00;0.00;;;9.30;99.90;;;;;;5011942;28;20096;-67
2022/02/02 08:59:04;;;;;;;0.75;0.75;;;9.40;99.90;;;;;;5026950;28;20092;-68
2022/02/02 09:01:34;;;;;;;0.00;0.00;;;9.40;99.90;;;;;;5010857;28;20026;-68
2022/02/02 09:06:44;;;;;;;0.10;0.10;;;9.40;99.90;;;;;;5011952;28;20033;-68
2022/02/02 09:09:16;;;;;;;0.00;0.00;;;9.50;99.90;;;;;;5011743;28;20104;-67
2022/02/02 09:20:19;;;;;;;0.10;0.10;;;9.60;99.90;;;;;;5012006;28;20113;-69
2022/02/02 09:35:57;;;;;;;0.00;0.00;;;9.90;99.90;;;;;;5031327;28;20037;-68
2022/02/02 09:38:24;;;;;;;1.08;0.98;;;9.90;99.90;;;;;;5030877;28;20474;-68
2022/02/02 09:43:25;;;;;;;0.15;0.15;;;9.80;99.90;;;;;;5035065;28;20068;-69
2022/02/02 09:46:05;;;;;;;0.00;0.00;;;9.90;99.90;;;;;;5035183;28;20068;-68
2022/02/02 09:48:57;;;;;;;2.53;1.17;;;9.90;99.90;;;;;;5034864;28;20467;-69
2022/02/02 09:51:29;;;;;;;0.30;0.30;;;10.10;99.90;;;;;;5046913;28;20049;-69
2022/02/02 09:57:02;;;;;;;0.00;0.00;;;10.20;99.90;;;;;;5034887;28;20036;-70
2022/02/02 10:05:35;;;;;;;0.10;0.10;;;10.30;99.90;;;;;;5034541;28;20034;-68
2022/02/02 10:16:00;;;;;;;0.00;0.00;;;10.30;99.90;;;;;;5034579;28;20299;-68
2022/02/02 10:18:34;;;;;;;0.40;0.25;;;10.30;99.90;;;;;;5032874;28;20022;-68
2022/02/02 10:21:03;;;;;;;0.00;0.00;;;10.20;99.90;;;;;;5034595;28;20030;-69
2022/02/02 10:23:35;;;;;;;1.50;1.40;;;10.10;99.90;;;;;;5034161;28;20044;-68
2022/02/02 10:26:22;;;;;;;0.00;0.00;;;10.10;99.90;;;;;;5034429;28;20471;-69
2022/02/02 10:28:50;;;;;;;0.82;0.80;;;10.30;99.90;;;;;;5034427;28;20042;-68
2022/02/02 10:31:17;;;;;;;0.10;0.10;;;10.20;99.90;;;;;;5049563;28;20025;-69
2022/02/02 10:33:43;;;;;;;0.00;0.00;;;10.20;99.90;;;;;;5034077;28;20049;-68
2022/02/02 10:36:23;;;;;;;0.47;0.47;;;10.10;99.90;;;;;;5034007;28;20140;-68
2022/02/02 10:39:10;;;;;;;0.00;0.00;;;10.10;99.90;;;;;;5034357;28;20038;-69
2022/02/02 10:44:32;;;;;;;3.20;2.00;;;10.20;99.90;;;;;;5033829;28;20069;-67
2022/02/02 10:47:20;;;;;;;0.10;0.10;;;10.60;99.90;;;;;;5049421;28;20033;-68
2022/02/02 11:06:38;;;;;;;0.00;0.00;;;12.30;99.90;;;;;;5033431;28;20032;-69
2022/02/02 11:09:14;;;;;;;1.67;1.25;;;12.70;99.90;;;;;;5033619;28;20506;-68
2022/02/02 11:11:52;;;;;;;3.10;2.67;;;12.70;99.30;;;;;;5048365;28;20146;-69
2022/02/02 11:14:42;;;;;;;0.00;0.00;;;12.50;99.90;;;;;;5033482;28;20478;-69
2022/02/02 11:17:29;;;;;;;0.00;0.00;;;12.30;99.90;;;;;;5033373;28;20076;-68
2022/02/02 11:20:01;;;;;;;0.25;0.25;;;12.20;99.30;;;;;;5048413;28;20417;-68
2022/02/02 11:22:32;;;;;;;0.00;0.00;;;11.70;99.80;;;;;;5033044;28;20041;-69
2022/02/02 11:25:03;;;;;;;1.83;0.75;;;11.40;99.90;;;;;;5033410;28;20091;-69
2022/02/02 11:27:41;;;;;;;0.00;0.00;;;11.70;99.90;;;;;;5032740;28;20132;-69
2022/02/02 11:30:30;;;;;;;0.00;0.00;;;12.00;99.90;;;;;;5048376;28;20116;-69
2022/02/02 11:33:01;;;;;;;1.85;0.77;;;13.00;96.80;;;;;;5026334;28;20083;-70
2022/02/02 11:35:28;;;;;;;;;;;13.40;95.60;;;;;;5033338;28;20433;-70
2022/02/02 11:37:59;;;;;;;0.52;0.52;;;13.90;94.20;;;;;;5033141;28;19956;-70
2022/02/02 11:40:26;;;;;;;;;;;14.30;93.30;;;;;;5033332;28;20030;-70
2022/02/02 11:43:05;;;;;;;0.10;0.10;;;14.50;92.50;;;;;;5031790;28;19913;-67
2022/02/02 11:46:03;;;;;;;0.88;0.88;;;14.60;91.70;;;;;;5046361;28;20061;-68
2022/02/02 11:48:44;;;;;;;0.10;0.10;;;14.60;92.30;;;;;;5032796;28;20651;-68
2022/02/02 11:51:10;;;;;;;0.52;0.52;;;14.80;90.50;;;;;;5047895;28;20038;-68
2022/02/02 11:53:48;;;;;;;0.10;0.10;;;14.90;90.20;;;;;;5031315;28;20029;-68
2022/02/02 11:56:15;;;;;;;0.10;0.10;;;14.70;89.60;;;;;;5032475;28;20041;-72
2022/02/02 11:58:42;;;;;;;0.00;0.00;;;14.30;90.00;;;;;;5032753;28;20479;-68
2022/02/02 12:01:17;;;;;;;0.22;0.22;;;14.10;90.90;;;;;;5047665;28;20097;-69
2022/02/02 12:04:19;;;;;;;0.40;0.40;;;13.80;91.00;;;;;;5045836;28;20037;-69
2022/02/02 12:06:44;;;;;;;0.45;0.45;;;13.70;91.30;;;;;;5044129;28;20052;-68
2022/02/02 12:47:45;;;;;;;0.00;0.00;;;14.20;86.00;;;;;;5032199;28;20029;-70
2022/02/02 12:50:28;;;;;;;0.70;0.70;;;14.10;87.90;;;;;;5030533;28;20029;-68
2022/02/02 12:58:32;;;;;;;0.10;0.10;;;15.40;84.30;;;;;;5031403;28;20060;-68
2022/02/02 13:01:09;;;;;;;0.38;0.30;;;14.80;86.30;;;;;;5030682;28;20470;-69
2022/02/02 13:03:41;;;;;;;0.08;0.08;;;14.80;86.50;;;;;;5031737;28;20394;-69
2022/02/02 13:06:21;;;;;;;0.70;0.45;;;14.70;87.30;;;;;;5030328;28;20040;-69
2022/02/02 13:08:49;;;;;;;0.13;0.13;;;14.60;87.30;;;;;;5031755;28;20036;-69
2022/02/02 13:11:30;;;;;;;0.00;0.00;;;14.30;89.00;;;;;;5031431;28;20033;-69
2022/02/02 13:14:01;;;;;;;0.47;0.47;;;14.40;89.90;;;;;;5030664;28;20116;-69
2022/02/02 13:16:28;;;;;;;0.17;0.17;;;15.00;89.00;;;;;;5035853;28;20034;-69
2022/02/02 13:19:00;;;;;;;0.08;0.08;;;15.30;88.10;;;;;;5035586;28;20033;-68
2022/02/02 13:21:35;;;;;;;6.60;2.20;;;15.20;88.00;;;;;;5034133;28;20498;-69
2022/02/02 13:24:15;;;;;;;0.20;0.20;;;14.90;88.30;;;;;;5034335;28;20029;-69
2022/02/02 13:27:00;;;;;;;3.83;1.75;;;14.30;90.70;;;;;;5019296;28;20047;-68
2022/02/02 13:29:40;;;;;;;0.00;0.00;;;13.90;91.20;;;;;;5035477;28;20025;-70
2022/02/02 13:34:51;;;;;;;4.85;1.15;;;14.70;90.10;;;;;;5034896;28;20057;-69
2022/02/02 13:43:08;;;;;;;3.05;1.60;;;14.10;91.40;;;;;;5035261;28;20068;-68
2022/02/02 14:04:01;;;;;;;0.20;0.20;;;11.60;95.10;;;;;;5034705;28;20064;-69
2022/02/02 14:33:31;;;;;;;1.38;0.65;;;12.00;95.50;;;;;;5034040;28;20052;-70
2022/02/02 14:36:00;;;;;;;0.20;0.20;;;11.80;96.40;;;;;;5032871;28;20045;-69
2022/02/02 14:38:34;;;;;;;0.10;0.10;;;11.50;97.90;;;;;;5034330;28;20026;-70
2022/02/02 14:41:51;;;;;;;2.17;0.65;;;11.50;98.60;;;;;;5033042;28;20033;-70
2022/02/02 14:46:22;;;;;;;0.10;0.10;;;11.50;98.70;;;;;;5033753;28;20033;-70
2022/02/02 14:48:55;;;;;;;14.32;0.45;;;11.40;98.80;;;;;;5033812;28;20072;-72
2022/02/02 14:51:41;;;;;;;0.10;0.10;;;11.40;99.10;;;;;;5033751;28;20394;-69
2022/02/02 15:29:10;;;;;;;0.52;0.43;;;12.10;99.90;;;;;;5041756;28;20073;-69
2022/02/02 15:31:36;;;;;;;0.00;0.00;;;12.00;99.90;;;;;;5032948;28;20482;-69
2022/02/02 15:34:05;;;;;;;0.52;0.52;;;12.00;99.90;;;;;;5032886;28;20049;-68
2022/02/02 15:39:10;;;;;;;0.15;0.15;;;12.30;99.90;;;;;;5033250;28;20034;-69
2022/02/02 15:41:56;;;;;;;2.88;0.80;;;12.50;99.90;;;;;;5031912;28;20034;-67
2022/02/02 16:04:57;;;;;;;0.00;0.00;;;10.60;99.90;;;;;;5032583;28;20055;-70
2022/02/02 16:07:28;;;;;;;10.85;1.73;;;10.50;99.90;;;;;;5047803;28;20053;-70
2022/02/02 16:09:58;;;;;;;0.00;0.00;;;10.40;99.90;;;;;;5031628;28;20043;-70
2022/02/02 16:12:44;;;;;;;0.30;0.30;;;10.50;99.90;;;;;;5032447;28;20052;-69
2022/02/02 16:37:01;;;;;;;0.00;0.00;;;9.90;99.90;;;;;;5010776;28;20045;-67
2022/02/02 16:39:27;;;;;;;0.00;0.00;;;9.90;99.90;;;;;;5044734;28;20084;-67
2022/02/02 16:44:40;;;;;;;0.00;0.00;;;9.80;99.90;;;;;;5031875;28;20033;-67
2022/02/02 16:47:06;;;;;;;0.10;0.10;;;9.80;99.90;;;;;;5031898;28;20067;-68
2022/02/02 16:49:32;;;;;;;0.88;0.85;;;9.80;99.90;;;;;;5046948;28;20615;-67
2022/02/02 16:51:58;;;;;;;0.75;0.75;;;9.80;99.90;;;;;;5032058;28;20041;-66
2022/02/02 16:54:35;;;;;;;0.35;0.35;;;9.80;99.90;;;;;;5031822;28;20559;-67
2022/02/02 17:25:08;;;;;;;0.40;0.40;;;9.60;99.90;;;;;;5046484;28;20111;-68
2022/02/02 18:20:48;;;;;;;0.00;0.00;;;9.70;99.90;;;;;;5033860;28;20044;-68
2022/02/02 18:23:26;;;;;;;0.30;0.30;;;9.60;99.90;;;;;;5033202;28;20690;-66
2022/02/02 18:28:47;;;;;;;0.00;0.00;;;9.50;99.90;;;;;;5030342;28;20497;-66
2022/02/02 18:33:54;;;;;;;0.00;0.00;;;9.40;99.90;;;;;;5048297;28;20129;-69
2022/02/02 20:06:47;;;;;;;0.70;0.70;;;9.10;99.90;;;;;;5046659;28;20048;-67
2022/02/02 20:11:44;;;;;;;0.10;0.10;;;9.10;99.90;;;;;;5019953;28;20060;-68
2022/02/02 20:14:12;;;;;;;0.00;0.00;;;9.10;99.90;;;;;;5011295;28;20563;-69
2022/02/02 20:16:39;;;;;;;0.17;0.17;;;9.20;99.90;;;;;;5012178;28;20837;-68
2022/02/02 20:19:08;;;;;;;0.30;0.30;;;9.00;99.90;;;;;;5012393;28;20045;-68
2022/02/02 20:21:42;;;;;;;0.05;0.05;;;9.00;99.90;;;;;;5011897;28;20045;-68
2022/02/02 20:24:09;;;;;;;0.05;0.05;;;9.00;99.90;;;;;;5025871;28;20037;-68
2022/02/02 20:26:36;;;;;;;0.30;0.30;;;8.90;99.90;;;;;;5027733;28;20037;-68
2022/02/02 20:29:03;;;;;;;0.43;0.43;;;9.00;99.90;;;;;;5012257;28;20036;-67
2022/02/02 20:31:32;;;;;;;1.10;1.08;;;9.00;99.90;;;;;;5012451;28;20040;-67
2022/02/02 20:33:59;;;;;;;0.32;0.32;;;8.90;99.90;;;;;;5011805;28;20092;-69
2022/02/02 20:36:25;;;;;;;0.52;0.52;;;8.80;99.90;;;;;;5012327;28;20036;-66
2022/02/02 20:38:51;;;;;;;0.17;0.17;;;8.90;99.90;;;;;;5012445;28;20518;-68
2022/02/02 20:41:19;;;;;;;0.30;0.30;;;8.80;99.90;;;;;;5011687;28;20084;-68
2022/02/02 20:43:53;;;;;;;0.00;0.00;;;8.80;99.90;;;;;;5010671;28;20112;-67
2022/02/02 21:10:42;;;;;;;0.32;0.32;;;8.10;99.90;;;;;;5025676;28;20030;-67
2022/02/02 21:15:53;;;;;;;0.13;0.13;;;8.00;99.90;;;;;;5011958;28;20037;-67
2022/02/02 21:18:22;;;;;;;0.32;0.32;;;8.10;99.90;;;;;;5011987;28;20038;-68
2022/02/02 21:20:58;;;;;;;0.10;0.10;;;7.90;99.90;;;;;;5010290;28;20033;-68
2022/02/02 21:28:30;;;;;;;2.50;1.88;;;7.60;99.90;;;;;;5011862;28;20084;-68
2022/02/02 21:30:56;;;;;;;0.00;0.00;;;7.60;99.90;;;;;;5026662;28;20037;-68
2022/02/02 21:33:22;;;;;;;0.60;0.60;;;7.50;99.90;;;;;;5026752;28;20372;-68
2022/02/02 21:35:50;;;;;;;0.70;0.63;;;7.50;99.90;;;;;;5028386;28;20040;-68
2022/02/02 21:38:29;;;;;;;0.35;0.35;;;7.50;99.90;;;;;;5015520;28;20494;-68
2022/02/02 21:40:58;;;;;;;1.55;1.45;;;7.60;99.90;;;;;;5030591;28;20425;-68
2022/02/02 21:43:26;;;;;;;0.63;0.38;;;7.60;99.90;;;;;;5015383;28;20037;-68
2022/02/02 21:45:52;;;;;;;0.00;0.00;;;7.60;99.90;;;;;;5030494;28;20030;-68
2022/02/02 21:48:19;;;;;;;0.00;0.00;;;7.70;99.90;;;;;;5015611;28;20116;-68
2022/02/02 21:50:59;;;;;;;0.17;0.17;;;7.60;99.90;;;;;;5015230;28;20091;-68
2022/02/02 21:53:24;;;;;;;0.10;0.10;;;7.70;99.90;;;;;;5015121;28;20590;-68
2022/02/02 21:55:50;;;;;;;0.13;0.13;;;7.70;99.90;;;;;;5030502;28;20125;-68
2022/02/02 21:58:16;;;;;;;0.30;0.30;;;7.70;99.90;;;;;;5015383;28;20026;-68
2022/02/02 22:00:42;;;;;;;0.00;0.00;;;7.70;99.90;;;;;;5015180;28;20034;-68
2022/02/02 22:03:11;;;;;;;3.35;1.42;;;7.70;99.90;;;;;;5015309;28;20057;-68
2022/02/02 22:05:38;;;;;;;0.40;0.40;;;7.70;99.90;;;;;;5014884;28;20088;-67
2022/02/02 22:08:08;;;;;;;0.73;0.73;;;7.80;99.90;;;;;;5029973;28;20048;-67
2022/02/02 22:10:39;;;;;;;1.13;0.98;;;7.80;99.90;;;;;;5015280;28;20057;-68
2022/02/02 22:13:05;;;;;;;0.40;0.40;;;7.80;99.90;;;;;;5014976;28;20022;-67
2022/02/02 22:15:41;;;;;;;0.05;0.05;;;7.80;99.90;;;;;;5014757;28;20042;-68
2022/02/02 22:18:07;;;;;;;0.00;0.00;;;7.80;99.90;;;;;;5028657;28;20537;-69
2022/02/02 22:20:33;;;;;;;0.00;0.00;;;7.80;99.90;;;;;;5014932;28;20483;-69
2022/02/02 22:22:59;;;;;;;0.00;0.00;;;7.70;99.90;;;;;;5014314;28;20129;-66
2022/02/02 22:25:26;;;;;;;0.00;0.00;;;7.70;99.90;;;;;;5029979;28;20041;-67
2022/02/02 22:27:52;;;;;;;1.45;0.75;;;7.70;99.90;;;;;;5014675;28;20076;-67
2022/02/02 22:30:18;;;;;;;4.05;3.75;;;7.70;99.90;;;;;;5014777;28;20483;-67
2022/02/02 22:32:44;;;;;;;0.10;0.10;;;7.70;99.90;;;;;;5029330;28;20128;-67
2022/02/02 22:35:09;;;;;;;0.00;0.00;;;7.70;99.90;;;;;;5014574;28;20621;-67
2022/02/02 22:37:35;;;;;;;0.17;0.17;;;7.70;99.90;;;;;;5014434;28;20117;-67
2022/02/02 22:40:04;;;;;;;0.08;0.08;;;7.70;99.90;;;;;;5014381;28;20033;-67
2022/02/02 22:42:30;;;;;;;0.20;0.20;;;7.80;99.90;;;;;;5014345;28;20491;-67
2022/02/02 22:45:00;;;;;;;0.10;0.10;;;7.70;99.90;;;;;;5014081;28;20030;-67
2022/02/02 22:47:28;;;;;;;0.00;0.00;;;7.70;99.90;;;;;;5028073;28;20517;-67
2022/02/02 22:49:56;;;;;;;0.20;0.20;;;7.70;99.90;;;;;;5014288;28;20069;-67
2022/02/02 22:52:23;;;;;;;0.45;0.45;;;7.70;99.90;;;;;;5014108;28;20022;-66
2022/02/02 22:54:49;;;;;;;4.57;1.35;;;7.70;99.90;;;;;;5013847;28;20499;-67
2022/02/02 22:57:15;;;;;;;4.90;1.40;;;7.70;99.90;;;;;;5013972;28;20076;-67
2022/02/02 22:59:44;;;;;;;0.08;0.08;;;7.70;99.90;;;;;;5014070;28;20068;-67
2022/02/02 23:02:30;;;;;;;0.32;0.32;;;7.70;99.90;;;;;;5013890;28;20038;-67
2022/02/02 23:04:55;;;;;;;1.55;1.45;;;7.70;99.90;;;;;;5012467;28;20038;-67
2022/02/02 23:07:21;;;;;;;0.63;0.63;;;7.70;99.90;;;;;;5014020;28;20471;-67
2022/02/02 23:09:49;;;;;;;0.25;0.25;;;7.70;99.90;;;;;;5013467;28;20037;-67
2022/02/02 23:12:15;;;;;;;0.13;0.13;;;7.70;99.90;;;;;;5013734;28;20026;-67
2022/02/02 23:14:43;;;;;;;1.08;0.52;;;7.70;99.90;;;;;;5028902;28;20073;-67
2022/02/02 23:17:10;;;;;;;0.85;0.77;;;7.70;99.90;;;;;;5028327;28;20372;-67
2022/02/02 23:19:39;;;;;;;0.50;0.50;;;7.60;99.90;;;;;;5013536;28;20072;-67
2022/02/02 23:22:08;;;;;;;0.08;0.08;;;7.60;99.90;;;;;;5011985;28;20060;-67
2022/02/02 23:24:38;;;;;;;0.10;0.10;;;7.60;99.90;;;;;;5028883;28;20041;-68
2022/02/02 23:27:10;;;;;;;0.40;0.40;;;7.60;99.90;;;;;;5013414;28;20040;-67
2022/02/02 23:29:40;;;;;;;0.17;0.17;;;7.50;99.90;;;;;;5013848;28;20116;-67
2022/02/02 23:32:06;;;;;;;0.15;0.15;;;7.50;99.90;;;;;;5028299;28;20380;-67
2022/02/02 23:34:32;;;;;;;0.08;0.08;;;7.60;99.90;;;;;;5028376;28;20441;-68
2022/02/02 23:36:58;;;;;;;0.10;0.10;;;7.60;99.90;;;;;;5013091;28;20116;-67
2022/02/02 23:39:26;;;;;;;1.00;1.00;;;7.70;99.90;;;;;;5011981;28;20128;-67
2022/02/02 23:42:18;;;;;;;1.17;1.08;;;7.80;99.90;;;;;;5013203;28;20030;-67
2022/02/02 23:44:40;;;;;;;0.45;0.45;;;7.90;99.90;;;;;;5012921;28;20040;-67
2022/02/02 23:47:09;;;;;;;0.45;0.45;;;7.90;99.90;;;;;;5028068;28;20042;-67
2022/02/02 23:49:49;;;;;;;0.15;0.15;;;7.90;99.90;;;;;;5027855;28;20108;-67
2022/02/02 23:52:22;;;;;;;0.00;0.00;;;7.90;99.90;;;;;;5012789;28;20042;-67
2022/02/02 23:54:55;;;;;;;0.20;0.20;;;7.90;99.90;;;;;;5011473;28;20026;-67
2022/02/02 23:57:43;;;;;;;1.08;0.98;;;7.90;99.90;;;;;;5013055;28;20034;-67
